Time;durP1;ratioP1;P1;durP2;ratioP2;P2;SDS_P1;SDS_P2;PMS_P1;PMS_P2;Temp;Humidity;BMP_temperature;BMP_pressure;BME280_temperature;BME280_humidity;BME280_pressure;Samples;Min_cycle;Max_cycle;Signal;HPM_P1;HPM_P2
2020/12/14 05:03:33;;;;;;;3.83;2.93;;;10.10;99.90;;;;;;884568;23;20854;-87
2020/12/14 05:05:59;;;;;;;4.07;2.60;;;10.10;99.90;;;;;;4937935;29;20260;-94
2020/12/14 05:08:26;;;;;;;3.87;2.70;;;10.10;99.90;;;;;;4939313;29;20778;-95
2020/12/14 05:10:53;;;;;;;5.20;2.37;;;10.20;99.90;;;;;;4939460;29;20214;-94
2020/12/14 05:13:19;;;;;;;2.60;2.40;;;10.20;99.90;;;;;;4939415;29;20194;-94
2020/12/14 05:15:46;;;;;;;2.90;2.00;;;10.30;99.90;;;;;;4939049;29;20213;-94
2020/12/14 05:18:14;;;;;;;3.33;2.03;;;10.40;99.90;;;;;;4939948;29;20214;-94
2020/12/14 05:20:42;;;;;;;4.73;2.20;;;10.30;99.90;;;;;;4939522;29;20207;-95
2020/12/14 05:23:11;;;;;;;4.40;2.33;;;10.30;99.90;;;;;;4923797;29;20218;-91
2020/12/14 05:30:52;;;;;;;3.07;1.80;;;10.20;99.90;;;;;;5290867;23;20328;-91
2020/12/14 05:50:48;;;;;;;3.17;1.87;;;10.10;99.90;;;;;;5071057;23;20248;-91
2020/12/14 05:53:19;;;;;;;2.47;2.03;;;10.00;99.90;;;;;;4957830;29;20212;-91
2020/12/14 06:04:24;;;;;;;2.93;2.20;;;10.10;99.90;;;;;;5055470;23;20323;-91
2020/12/14 06:06:58;;;;;;;4.20;2.23;;;10.10;99.90;;;;;;4978201;28;20229;-93
2020/12/14 06:09:26;;;;;;;6.20;2.40;;;10.10;99.90;;;;;;4977200;28;20243;-93
2020/12/14 06:17:01;;;;;;;2.87;2.57;;;10.30;99.90;;;;;;4945216;28;20340;-92
2020/12/14 06:19:27;;;;;;;2.60;2.43;;;10.10;99.90;;;;;;4938436;29;20726;-92
2020/12/14 06:22:01;;;;;;;3.17;2.40;;;10.10;99.90;;;;;;4939591;29;20198;-92
2020/12/14 06:24:29;;;;;;;3.00;2.13;;;10.20;99.90;;;;;;4939602;29;20215;-91
2020/12/14 06:41:12;;;;;;;2.87;1.80;;;10.30;99.90;;;;;;5072703;23;20237;-91
2020/12/14 07:13:40;;;;;;;1.50;1.40;;;10.50;99.90;;;;;;5772464;23;20229;-90
2020/12/14 07:24:36;;;;;;;1.70;1.60;;;10.50;99.90;;;;;;5148960;23;20241;-91
2020/12/14 07:27:02;;;;;;;2.00;1.67;;;10.50;99.90;;;;;;4955961;29;20226;-92
2020/12/14 07:29:30;;;;;;;1.90;1.80;;;10.50;99.90;;;;;;4939045;29;20229;-92
2020/12/14 07:31:56;;;;;;;2.40;1.53;;;10.60;99.90;;;;;;4956421;29;20210;-92
2020/12/14 07:37:45;;;;;;;2.00;1.80;;;10.70;99.90;;;;;;4959452;28;20220;-92
2020/12/14 07:40:11;;;;;;;3.03;1.50;;;10.60;99.90;;;;;;4962709;29;20292;-92
2020/12/14 07:42:44;;;;;;;2.27;1.80;;;10.70;99.90;;;;;;4957628;29;20282;-92
2020/12/14 07:45:12;;;;;;;1.87;1.30;;;10.70;99.90;;;;;;4958336;29;20206;-91
2020/12/14 07:47:40;;;;;;;1.60;1.50;;;10.60;99.90;;;;;;4959602;29;20313;-92
2020/12/14 07:55:49;;;;;;;3.30;1.70;;;10.70;99.90;;;;;;5060291;23;20249;-94
2020/12/14 07:58:15;;;;;;;1.60;1.47;;;10.80;99.90;;;;;;4976110;28;20292;-94
2020/12/14 08:00:42;;;;;;;2.40;1.80;;;10.90;99.90;;;;;;4977347;28;20220;-93
2020/12/14 08:09:01;;;;;;;2.10;1.90;;;10.60;99.90;;;;;;5015163;23;20249;-91
2020/12/14 08:11:28;;;;;;;2.17;2.07;;;10.60;99.90;;;;;;4980734;28;20193;-88
2020/12/14 08:13:55;;;;;;;3.03;2.43;;;10.60;99.90;;;;;;4989591;28;20228;-95
2020/12/14 08:16:23;;;;;;;2.43;2.23;;;10.70;99.90;;;;;;4982921;28;20320;-94
2020/12/14 08:18:50;;;;;;;4.60;2.23;;;10.80;99.90;;;;;;4979007;28;20194;-96
2020/12/14 08:24:09;;;;;;;2.00;1.90;;;10.80;99.90;;;;;;5005988;23;20588;-94
2020/12/14 08:26:39;;;;;;;2.50;2.30;;;10.90;99.90;;;;;;4978710;28;20686;-96
2020/12/14 08:29:05;;;;;;;4.27;2.53;;;10.90;99.90;;;;;;4979210;28;20260;-95
2020/12/14 08:31:33;;;;;;;3.60;2.40;;;10.90;99.90;;;;;;4978973;28;20198;-94
2020/12/14 08:33:59;;;;;;;2.50;1.90;;;10.90;99.90;;;;;;4978204;28;20212;-92
2020/12/14 08:36:26;;;;;;;2.10;1.90;;;10.90;99.90;;;;;;4978482;28;20299;-93
2020/12/14 08:38:52;;;;;;;2.13;2.03;;;10.90;99.90;;;;;;4978418;28;20209;-93
2020/12/14 08:41:21;;;;;;;2.37;2.20;;;10.70;99.90;;;;;;4978563;28;20200;-92
2020/12/14 08:43:48;;;;;;;1.90;1.80;;;10.80;99.90;;;;;;4978152;28;20579;-94
2020/12/14 08:46:15;;;;;;;2.40;2.03;;;10.80;99.90;;;;;;4978218;28;20232;-92
2020/12/14 08:48:54;;;;;;;2.40;2.20;;;10.70;99.90;;;;;;4978261;28;20316;-92
2020/12/14 08:51:24;;;;;;;5.30;2.20;;;10.70;99.90;;;;;;4978294;28;20217;-93
2020/12/14 08:53:51;;;;;;;2.97;2.13;;;10.70;99.90;;;;;;4978735;28;20209;-92
2020/12/14 08:56:19;;;;;;;3.67;2.40;;;10.70;99.90;;;;;;4981946;28;20229;-93
2020/12/14 08:58:50;;;;;;;3.17;2.13;;;10.70;99.90;;;;;;4978123;28;20224;-94
2020/12/14 09:01:17;;;;;;;4.97;2.70;;;10.80;99.90;;;;;;4977935;28;20194;-93
2020/12/14 09:07:07;;;;;;;2.93;2.30;;;10.80;99.90;;;;;;4978247;28;20224;-93
2020/12/14 09:09:34;;;;;;;3.50;2.40;;;10.90;99.90;;;;;;4977910;28;20229;-93
2020/12/14 09:12:03;;;;;;;2.57;2.20;;;10.90;99.90;;;;;;4977978;28;20204;-93
2020/12/14 09:14:31;;;;;;;4.17;2.00;;;10.80;99.90;;;;;;4979064;28;20193;-92
2020/12/14 09:16:58;;;;;;;2.40;1.90;;;10.90;99.90;;;;;;4977614;28;20233;-92
2020/12/14 09:19:26;;;;;;;2.60;2.10;;;10.90;99.90;;;;;;4977679;28;20205;-91
2020/12/14 09:21:53;;;;;;;3.23;2.00;;;10.90;99.90;;;;;;4978206;28;20216;-92
2020/12/14 09:24:23;;;;;;;3.50;2.10;;;10.90;99.90;;;;;;4977289;28;20575;-94
2020/12/14 09:26:52;;;;;;;4.57;2.20;;;11.00;99.90;;;;;;4977553;28;20236;-92
2020/12/14 09:29:19;;;;;;;3.67;2.20;;;11.10;99.90;;;;;;4977865;28;20234;-93
2020/12/14 09:31:49;;;;;;;3.17;2.13;;;11.10;99.90;;;;;;4978422;28;20219;-91
2020/12/14 09:34:16;;;;;;;4.53;2.27;;;11.10;99.90;;;;;;4977492;28;20216;-93
2020/12/14 09:36:42;;;;;;;4.83;2.03;;;11.10;99.90;;;;;;4960418;28;20705;-94
2020/12/14 09:39:08;;;;;;;2.67;1.93;;;11.10;99.90;;;;;;4977379;28;20220;-93
2020/12/14 09:41:36;;;;;;;5.33;2.10;;;11.10;99.90;;;;;;4977136;28;20212;-94
2020/12/14 09:44:02;;;;;;;2.77;1.87;;;11.10;99.90;;;;;;4977966;28;20244;-93
2020/12/14 09:46:30;;;;;;;3.27;1.97;;;11.30;99.90;;;;;;4977289;28;20230;-92
2020/12/14 09:48:58;;;;;;;4.20;2.17;;;11.40;99.90;;;;;;4977399;28;20225;-93
2020/12/14 09:51:25;;;;;;;4.17;3.03;;;11.30;99.90;;;;;;4977404;28;20209;-94
2020/12/14 09:53:51;;;;;;;2.00;1.90;;;11.40;99.90;;;;;;4977305;28;20684;-94
2020/12/14 09:56:18;;;;;;;2.30;2.10;;;11.30;99.90;;;;;;4977159;28;20228;-94
2020/12/14 09:58:46;;;;;;;3.50;2.30;;;11.40;99.90;;;;;;4977470;28;20205;-93
2020/12/14 10:01:12;;;;;;;2.23;2.00;;;11.50;99.90;;;;;;4977685;28;20213;-93
2020/12/14 10:03:39;;;;;;;3.03;2.20;;;11.50;99.90;;;;;;4976798;28;20290;-92
2020/12/14 10:06:05;;;;;;;2.87;2.00;;;11.50;99.90;;;;;;4976676;28;20623;-93
2020/12/14 10:08:31;;;;;;;5.17;2.10;;;11.50;99.90;;;;;;4976827;28;20248;-92
2020/12/14 10:10:58;;;;;;;2.50;1.90;;;11.40;99.90;;;;;;4976760;28;20573;-93
2020/12/14 10:13:24;;;;;;;3.47;2.03;;;11.40;99.90;;;;;;4976991;28;20211;-93
2020/12/14 10:19:06;;;;;;;2.17;1.97;;;11.20;99.90;;;;;;5019069;23;20264;-95
2020/12/14 10:21:32;;;;;;;3.77;2.23;;;11.20;99.90;;;;;;4976577;28;20221;-95
2020/12/14 10:23:59;;;;;;;2.40;2.20;;;11.40;99.90;;;;;;4976356;28;20201;-92
2020/12/14 10:26:25;;;;;;;2.20;2.03;;;11.50;99.90;;;;;;4976470;28;20234;-93
2020/12/14 10:28:51;;;;;;;3.00;2.20;;;11.50;99.90;;;;;;4976548;28;20229;-93
2020/12/14 10:31:18;;;;;;;2.10;1.90;;;11.50;99.90;;;;;;4977235;28;20213;-91
2020/12/14 10:33:47;;;;;;;5.20;2.10;;;11.40;99.90;;;;;;4976531;28;20213;-93
2020/12/14 10:36:18;;;;;;;6.27;2.20;;;11.50;99.90;;;;;;4976179;28;20225;-92
2020/12/14 10:38:45;;;;;;;3.90;2.23;;;11.30;99.90;;;;;;4959025;28;20213;-94
2020/12/14 10:41:12;;;;;;;2.97;2.27;;;11.30;99.90;;;;;;4976343;28;20217;-94
2020/12/14 10:43:39;;;;;;;3.67;2.37;;;11.30;99.90;;;;;;4976285;28;20215;-96
2020/12/14 10:46:05;;;;;;;3.77;2.10;;;11.50;99.90;;;;;;4976996;28;20233;-95
2020/12/14 10:48:43;;;;;;;4.83;2.23;;;11.50;99.90;;;;;;4977812;28;20202;-95
2020/12/14 10:51:10;;;;;;;3.27;2.07;;;11.50;99.90;;;;;;4980734;28;20198;-93
2020/12/14 10:53:37;;;;;;;3.60;2.00;;;11.70;99.90;;;;;;4977225;28;20210;-92
2020/12/14 10:56:03;;;;;;;4.27;2.10;;;11.70;99.90;;;;;;4976076;28;20221;-92
2020/12/14 10:58:30;;;;;;;3.47;2.97;;;11.80;99.90;;;;;;4976110;28;20282;-92
2020/12/14 11:00:56;;;;;;;3.50;2.50;;;11.80;99.90;;;;;;4976226;28;20206;-94
2020/12/14 11:03:24;;;;;;;4.70;2.20;;;11.90;99.90;;;;;;4974993;28;20194;-91
2020/12/14 11:05:52;;;;;;;4.83;2.80;;;12.00;99.90;;;;;;4966961;28;20194;-91
2020/12/14 11:08:19;;;;;;;3.67;2.63;;;12.10;99.90;;;;;;4946149;29;20218;-91
2020/12/14 11:10:46;;;;;;;5.07;2.87;;;12.10;99.90;;;;;;4967488;28;20211;-90
2020/12/14 11:13:12;;;;;;;2.87;2.20;;;12.20;99.90;;;;;;4976008;28;20668;-91
2020/12/14 11:15:39;;;;;;;6.67;2.70;;;12.30;99.90;;;;;;4976529;28;20213;-91
2020/12/14 11:18:05;;;;;;;3.37;2.20;;;12.30;99.90;;;;;;4967214;28;20235;-93
2020/12/14 11:20:31;;;;;;;3.97;2.43;;;12.50;99.90;;;;;;4956581;29;20622;-92
2020/12/14 11:22:58;;;;;;;5.07;2.10;;;12.40;99.90;;;;;;4956226;29;20200;-94
2020/12/14 11:25:25;;;;;;;3.87;2.30;;;12.50;99.90;;;;;;4961757;28;20199;-92
2020/12/14 11:27:52;;;;;;;5.90;2.33;;;12.40;99.90;;;;;;4962436;28;20229;-93
2020/12/14 11:30:18;;;;;;;6.27;2.60;;;12.50;99.90;;;;;;4975179;28;20704;-89
2020/12/14 11:32:45;;;;;;;2.73;2.23;;;12.50;99.90;;;;;;4975531;28;20204;-94
2020/12/14 11:35:11;;;;;;;5.83;2.10;;;12.60;99.90;;;;;;4974502;28;20222;-93
2020/12/14 11:37:38;;;;;;;3.40;2.40;;;12.60;99.90;;;;;;4975925;28;20239;-90
2020/12/14 11:40:06;;;;;;;3.87;2.30;;;12.60;99.90;;;;;;4975332;28;20636;-93
2020/12/14 11:42:32;;;;;;;4.38;2.17;;;12.60;99.90;;;;;;4975536;28;20440;-94
2020/12/14 11:44:59;;;;;;;4.93;2.27;;;12.60;99.90;;;;;;4976074;28;20212;-93
2020/12/14 11:47:26;;;;;;;4.03;2.23;;;12.70;99.90;;;;;;4957708;28;20714;-91
2020/12/14 11:49:52;;;;;;;6.20;2.27;;;12.80;99.90;;;;;;4975096;28;20235;-93
2020/12/14 11:52:18;;;;;;;4.60;2.20;;;12.70;99.90;;;;;;4975515;28;20292;-93
2020/12/14 11:54:44;;;;;;;4.70;2.03;;;12.60;99.90;;;;;;4975406;28;20211;-94
2020/12/14 11:57:11;;;;;;;4.37;2.50;;;12.80;99.90;;;;;;4974511;28;20232;-89
2020/12/14 11:59:38;;;;;;;5.10;2.50;;;12.80;99.90;;;;;;4974312;28;20227;-90
2020/12/14 12:02:07;;;;;;;4.67;2.00;;;12.70;99.90;;;;;;4975376;28;20200;-93
2020/12/14 12:04:33;;;;;;;5.63;2.10;;;12.80;99.90;;;;;;4975094;28;20196;-93
2020/12/14 12:07:03;;;;;;;5.73;2.20;;;12.80;99.90;;;;;;4974805;28;20239;-92
2020/12/14 12:09:29;;;;;;;7.43;2.47;;;13.00;99.90;;;;;;4974967;28;20246;-91
2020/12/14 12:11:55;;;;;;;4.37;2.10;;;13.10;99.90;;;;;;4957974;28;20624;-92
2020/12/14 12:14:22;;;;;;;6.10;2.50;;;12.90;99.90;;;;;;4974518;28;20296;-92
2020/12/14 12:16:48;;;;;;;4.80;2.40;;;12.80;99.90;;;;;;4974671;28;20569;-88
2020/12/14 12:19:17;;;;;;;6.50;2.30;;;12.80;99.90;;;;;;4975541;28;20215;-90
2020/12/14 12:21:47;;;;;;;5.10;2.30;;;12.90;99.90;;;;;;4975125;28;20297;-93
2020/12/14 12:24:13;;;;;;;4.57;2.67;;;13.00;99.90;;;;;;4974792;28;20192;-89
2020/12/14 12:26:40;;;;;;;6.97;2.40;;;12.90;99.90;;;;;;4974507;28;20241;-91
2020/12/14 12:29:06;;;;;;;7.87;2.73;;;13.00;99.90;;;;;;4974430;28;20701;-90
2020/12/14 12:31:32;;;;;;;3.97;2.10;;;12.80;99.90;;;;;;4975210;28;20203;-90
2020/12/14 12:33:59;;;;;;;7.50;2.20;;;12.80;99.90;;;;;;4975248;28;20569;-89
2020/12/14 12:36:26;;;;;;;11.27;2.93;;;12.90;99.90;;;;;;4974287;28;20238;-91
2020/12/14 12:38:52;;;;;;;8.80;2.63;;;13.00;99.90;;;;;;4974738;28;20555;-91
2020/12/14 12:41:19;;;;;;;11.50;3.43;;;13.00;99.90;;;;;;4975456;28;20218;-90
2020/12/14 12:43:45;;;;;;;5.67;2.60;;;12.90;99.90;;;;;;4974616;28;20207;-89
2020/12/14 12:46:11;;;;;;;2.43;2.13;;;12.80;99.90;;;;;;4975726;28;20235;-94
2020/12/14 12:48:37;;;;;;;9.50;3.40;;;12.80;99.90;;;;;;4979089;28;20226;-90
2020/12/14 12:51:07;;;;;;;9.20;2.57;;;12.70;99.90;;;;;;4977969;28;20599;-94
2020/12/14 12:53:35;;;;;;;9.73;3.00;;;12.70;99.90;;;;;;4960678;28;20207;-93
2020/12/14 12:56:02;;;;;;;9.27;2.63;;;12.80;99.90;;;;;;4977968;28;20228;-90
2020/12/14 12:58:28;;;;;;;6.93;2.50;;;12.90;99.90;;;;;;4977656;28;20216;-92
2020/12/14 13:00:54;;;;;;;9.70;2.27;;;13.00;99.90;;;;;;4978742;28;20219;-91
2020/12/14 13:03:20;;;;;;;4.27;2.27;;;12.90;99.90;;;;;;4977726;28;20218;-90
2020/12/14 13:05:47;;;;;;;2.93;2.33;;;12.80;99.90;;;;;;4977794;28;20222;-89
2020/12/14 13:08:14;;;;;;;4.87;2.13;;;12.70;99.90;;;;;;4980674;28;20212;-89
2020/12/14 13:10:50;;;;;;;2.40;2.07;;;12.70;99.90;;;;;;4979095;28;20258;-89
2020/12/14 13:13:16;;;;;;;8.27;2.70;;;12.90;99.90;;;;;;4952079;29;20214;-91
2020/12/14 13:15:46;;;;;;;4.17;2.10;;;12.80;99.90;;;;;;4959294;28;20211;-93
2020/12/14 13:18:13;;;;;;;7.13;2.63;;;12.70;99.90;;;;;;4978064;28;20239;-89
2020/12/14 13:20:39;;;;;;;5.30;2.43;;;12.60;99.90;;;;;;4961134;28;20225;-94
2020/12/14 13:23:06;;;;;;;4.47;2.30;;;12.60;99.90;;;;;;4981021;28;20306;-91
2020/12/14 13:25:32;;;;;;;3.70;2.27;;;12.60;99.90;;;;;;4960472;28;20651;-91
2020/12/14 13:27:59;;;;;;;8.03;2.30;;;12.60;99.90;;;;;;4977812;28;20218;-87
2020/12/14 13:30:26;;;;;;;5.43;2.10;;;12.60;99.90;;;;;;4977955;28;20231;-91
2020/12/14 13:32:52;;;;;;;3.40;2.07;;;12.60;99.90;;;;;;4977544;28;20214;-90
2020/12/14 13:35:19;;;;;;;4.03;2.50;;;12.60;99.90;;;;;;4977234;28;20203;-92
2020/12/14 13:37:47;;;;;;;4.13;2.57;;;12.60;99.90;;;;;;4962298;28;20240;-90
2020/12/14 13:40:14;;;;;;;6.10;2.87;;;12.50;99.90;;;;;;4979688;28;20215;-90
2020/12/14 13:42:40;;;;;;;4.90;2.50;;;12.70;99.90;;;;;;4977761;28;20569;-91
2020/12/14 13:45:07;;;;;;;4.17;2.73;;;12.60;99.90;;;;;;4977785;28;20380;-91
2020/12/14 13:47:34;;;;;;;6.17;2.80;;;12.70;99.90;;;;;;4977699;28;20238;-91
2020/12/14 13:50:00;;;;;;;7.97;3.07;;;12.70;99.90;;;;;;4977145;28;20747;-90
2020/12/14 13:52:30;;;;;;;9.80;3.27;;;12.70;99.90;;;;;;4977938;28;20211;-90
2020/12/14 13:54:56;;;;;;;4.13;2.70;;;12.70;99.90;;;;;;4977448;28;20204;-90
2020/12/14 13:57:23;;;;;;;7.20;2.80;;;12.60;99.90;;;;;;4976806;28;20237;-89
2020/12/14 13:59:49;;;;;;;6.00;2.83;;;12.50;99.90;;;;;;4960103;28;20221;-91
2020/12/14 14:02:17;;;;;;;7.63;2.60;;;12.50;99.90;;;;;;4977305;28;20200;-93
2020/12/14 14:04:43;;;;;;;4.67;2.40;;;12.40;99.90;;;;;;4977290;28;20210;-90
2020/12/14 14:07:11;;;;;;;5.87;3.07;;;12.40;99.90;;;;;;4977120;28;20230;-90
2020/12/14 14:09:37;;;;;;;7.33;3.27;;;12.40;99.90;;;;;;4977325;28;20317;-91
2020/12/14 14:12:03;;;;;;;7.00;2.60;;;12.30;99.90;;;;;;4976650;28;20559;-90
2020/12/14 14:14:30;;;;;;;4.20;2.27;;;12.20;99.90;;;;;;4976438;28;20654;-90
2020/12/14 14:16:58;;;;;;;5.93;2.73;;;12.10;99.90;;;;;;4976490;28;20237;-88
2020/12/14 14:19:26;;;;;;;14.07;3.50;;;12.00;99.90;;;;;;4976448;28;20194;-87
2020/12/14 14:21:53;;;;;;;9.00;3.03;;;11.90;99.90;;;;;;4976527;28;20273;-89
2020/12/14 14:24:19;;;;;;;5.17;2.67;;;12.00;99.90;;;;;;4975063;28;20209;-90
2020/12/14 14:26:48;;;;;;;8.50;3.37;;;11.90;99.90;;;;;;4976472;28;20234;-88
2020/12/14 14:29:15;;;;;;;8.93;2.93;;;11.70;99.90;;;;;;4959584;28;20564;-91
2020/12/14 14:31:41;;;;;;;8.47;2.77;;;11.80;99.90;;;;;;4976633;28;20221;-90
2020/12/14 14:34:08;;;;;;;4.63;2.60;;;11.70;99.90;;;;;;4976292;28;20193;-90
2020/12/14 14:36:35;;;;;;;3.60;2.57;;;11.70;99.90;;;;;;4976284;28;20229;-90
2020/12/14 14:39:04;;;;;;;8.20;2.83;;;11.70;99.90;;;;;;4959266;28;20547;-90
2020/12/14 14:41:30;;;;;;;6.23;2.27;;;11.60;99.90;;;;;;4976266;28;20704;-90
2020/12/14 14:43:56;;;;;;;3.57;2.30;;;11.50;99.90;;;;;;4976136;28;20221;-89
2020/12/14 14:46:22;;;;;;;5.13;2.83;;;11.50;99.90;;;;;;4975559;28;20688;-90
2020/12/14 14:48:49;;;;;;;8.37;2.90;;;11.50;99.90;;;;;;4976734;28;20201;-89
2020/12/14 14:51:15;;;;;;;6.83;3.17;;;11.60;99.90;;;;;;4975928;28;20218;-90
2020/12/14 14:53:42;;;;;;;7.07;2.53;;;11.50;99.90;;;;;;4975995;28;20196;-90
2020/12/14 14:56:08;;;;;;;4.90;2.33;;;11.60;99.90;;;;;;4975731;28;20249;-89
2020/12/14 14:58:35;;;;;;;4.23;2.87;;;11.60;99.90;;;;;;4975523;28;20658;-90
2020/12/14 15:01:01;;;;;;;4.63;2.63;;;11.50;99.90;;;;;;4975598;28;20206;-88
2020/12/14 15:03:27;;;;;;;4.57;2.63;;;11.40;99.90;;;;;;4975686;28;20209;-89
2020/12/14 15:05:55;;;;;;;4.27;2.70;;;11.40;99.90;;;;;;4975926;28;20234;-91
2020/12/14 15:08:21;;;;;;;4.60;2.13;;;11.50;99.90;;;;;;4975857;28;20622;-91
2020/12/14 15:10:48;;;;;;;5.23;2.80;;;11.50;99.90;;;;;;4974904;28;20728;-89
2020/12/14 15:13:15;;;;;;;6.23;2.80;;;11.40;99.90;;;;;;4975457;28;20286;-90
2020/12/14 15:15:43;;;;;;;5.10;2.53;;;11.50;99.90;;;;;;4975401;28;20592;-88
2020/12/14 15:18:10;;;;;;;7.97;2.40;;;11.60;99.90;;;;;;4975328;28;20578;-94
2020/12/14 15:20:37;;;;;;;8.83;2.93;;;11.60;99.90;;;;;;4975139;28;20214;-95
2020/12/14 15:23:03;;;;;;;4.83;2.83;;;11.60;99.90;;;;;;4975567;28;20244;-93
2020/12/14 15:25:30;;;;;;;9.10;3.00;;;11.60;99.90;;;;;;4975330;28;20206;-95
2020/12/14 15:27:57;;;;;;;5.53;2.97;;;11.50;99.90;;;;;;4975508;28;20229;-95
2020/12/14 15:30:24;;;;;;;6.90;3.13;;;11.70;99.90;;;;;;4975301;28;20603;-94
2020/12/14 15:32:50;;;;;;;5.03;3.27;;;11.70;99.90;;;;;;4975092;28;20197;-95
2020/12/14 15:35:17;;;;;;;6.33;3.00;;;11.70;99.90;;;;;;4976993;28;20201;-95
2020/12/14 15:37:43;;;;;;;9.30;3.50;;;11.70;99.90;;;;;;4975769;28;20221;-94
2020/12/14 15:40:09;;;;;;;5.90;3.30;;;11.80;99.90;;;;;;4974101;28;20213;-92
2020/12/14 15:42:36;;;;;;;6.45;3.40;;;11.80;99.90;;;;;;4973457;28;20451;-89
2020/12/14 15:45:04;;;;;;;5.03;2.80;;;11.70;99.90;;;;;;4975675;28;20614;-93
2020/12/14 15:47:31;;;;;;;5.40;3.33;;;11.70;99.90;;;;;;4959700;28;20994;-93
2020/12/14 15:49:57;;;;;;;5.23;3.30;;;11.80;99.90;;;;;;4938459;29;20468;-91
2020/12/14 15:52:23;;;;;;;5.67;4.00;;;11.80;99.90;;;;;;4955770;29;20195;-92
2020/12/14 15:54:50;;;;;;;11.73;4.53;;;11.70;99.90;;;;;;4955868;29;20192;-93
2020/12/14 15:57:16;;;;;;;8.80;4.67;;;11.80;99.90;;;;;;4955685;29;20227;-90
2020/12/14 15:59:42;;;;;;;7.43;4.30;;;11.70;99.90;;;;;;4955802;29;20183;-92
2020/12/14 16:02:12;;;;;;;9.50;5.43;;;11.60;99.90;;;;;;4955265;29;20298;-92
2020/12/14 16:04:40;;;;;;;9.97;5.57;;;11.70;99.90;;;;;;4938605;29;20217;-92
2020/12/14 16:07:06;;;;;;;8.37;5.30;;;11.60;99.90;;;;;;4955655;29;20234;-93
2020/12/14 16:09:33;;;;;;;14.97;5.90;;;11.60;99.90;;;;;;4955668;29;20320;-92
2020/12/14 16:12:00;;;;;;;10.33;6.13;;;11.60;99.90;;;;;;4955496;28;20224;-91
2020/12/14 16:14:27;;;;;;;13.37;5.60;;;11.50;99.90;;;;;;4938489;29;20618;-90
2020/12/14 16:16:54;;;;;;;10.83;5.90;;;11.40;99.90;;;;;;4937914;29;20665;-90
2020/12/14 16:19:21;;;;;;;9.63;5.47;;;11.50;99.90;;;;;;4955367;29;20609;-91
2020/12/14 16:21:47;;;;;;;7.23;5.20;;;11.60;99.90;;;;;;4958085;28;20217;-91
2020/12/14 16:24:14;;;;;;;8.23;5.13;;;11.50;99.90;;;;;;4959392;29;20213;-93
2020/12/14 16:26:40;;;;;;;7.03;4.27;;;11.40;99.90;;;;;;4959359;29;20239;-90
2020/12/14 16:29:07;;;;;;;5.10;4.47;;;11.50;99.90;;;;;;4959286;29;20228;-90
2020/12/14 16:31:33;;;;;;;8.27;3.60;;;11.60;99.90;;;;;;4959150;29;20277;-92
2020/12/14 16:34:00;;;;;;;6.53;3.50;;;11.60;99.90;;;;;;4959160;29;20199;-91
2020/12/14 16:36:27;;;;;;;6.07;3.20;;;11.70;99.90;;;;;;4958948;29;20286;-91
2020/12/14 16:38:57;;;;;;;8.40;3.43;;;11.70;99.90;;;;;;4959332;29;20203;-94
2020/12/14 16:41:23;;;;;;;4.97;3.00;;;11.70;99.90;;;;;;4958962;29;20195;-91
2020/12/14 16:43:50;;;;;;;6.83;3.07;;;11.60;99.90;;;;;;4974366;28;20206;-90
2020/12/14 16:46:16;;;;;;;5.23;2.97;;;11.60;99.90;;;;;;4978253;28;20609;-90
2020/12/14 16:48:42;;;;;;;8.50;3.73;;;11.60;99.90;;;;;;4978375;28;20235;-91
2020/12/14 16:51:10;;;;;;;3.33;2.73;;;11.60;99.90;;;;;;4977405;28;20616;-93
2020/12/14 16:53:37;;;;;;;6.63;3.00;;;11.50;99.90;;;;;;4977791;28;20198;-93
2020/12/14 16:56:03;;;;;;;6.10;2.93;;;11.50;99.90;;;;;;4961226;28;20253;-92
2020/12/14 16:58:30;;;;;;;5.53;2.97;;;11.50;99.90;;;;;;4977700;28;20197;-94
2020/12/14 17:00:56;;;;;;;5.40;2.70;;;11.70;99.90;;;;;;4978128;28;20217;-92
2020/12/14 17:03:23;;;;;;;5.90;2.67;;;11.70;99.90;;;;;;4977790;28;20195;-95
2020/12/14 17:05:49;;;;;;;5.10;2.47;;;11.60;99.90;;;;;;4977809;28;20202;-93
2020/12/14 17:08:15;;;;;;;7.93;3.00;;;11.60;99.90;;;;;;4977228;28;20664;-90
2020/12/14 17:10:42;;;;;;;7.17;3.60;;;11.50;99.90;;;;;;4977261;28;20224;-95
2020/12/14 17:13:09;;;;;;;9.10;3.07;;;11.50;99.90;;;;;;4977603;28;20214;-88
2020/12/14 17:15:35;;;;;;;9.17;3.30;;;11.60;99.90;;;;;;4964195;28;20210;-92
2020/12/14 17:18:03;;;;;;;4.63;3.17;;;11.50;99.90;;;;;;4940830;29;20238;-93
2020/12/14 17:20:30;;;;;;;10.03;4.00;;;11.50;99.90;;;;;;4941740;29;20214;-91
2020/12/14 17:22:56;;;;;;;4.20;3.60;;;11.40;99.90;;;;;;4957811;29;20211;-92
2020/12/14 17:25:23;;;;;;;7.50;3.53;;;11.40;99.90;;;;;;4957879;29;20567;-90
2020/12/14 17:27:50;;;;;;;6.77;3.47;;;11.40;99.90;;;;;;4957798;29;20238;-92
2020/12/14 17:30:17;;;;;;;7.73;3.77;;;11.30;99.90;;;;;;4940816;29;20287;-91
2020/12/14 17:32:45;;;;;;;8.23;3.73;;;11.20;99.90;;;;;;4958021;28;20217;-91
2020/12/14 17:35:12;;;;;;;11.77;4.30;;;11.20;99.90;;;;;;4941059;29;20618;-93
2020/12/14 17:37:38;;;;;;;5.63;3.37;;;11.20;99.90;;;;;;4958712;29;20230;-89
2020/12/14 17:40:05;;;;;;;8.23;3.53;;;11.20;99.90;;;;;;4957988;29;20205;-90
2020/12/14 17:42:32;;;;;;;7.53;3.93;;;11.20;99.90;;;;;;4945067;28;20202;-92
2020/12/14 17:44:59;;;;;;;5.80;3.70;;;11.10;99.90;;;;;;4977119;28;20302;-91
2020/12/14 17:47:26;;;;;;;7.97;3.97;;;11.10;99.90;;;;;;4977124;28;20691;-91
2020/12/14 17:49:54;;;;;;;6.63;4.33;;;11.10;99.90;;;;;;4977057;28;20218;-93
2020/12/14 17:52:21;;;;;;;5.40;3.80;;;11.00;99.90;;;;;;4959617;28;20231;-93
2020/12/14 17:54:47;;;;;;;11.07;3.97;;;11.20;99.90;;;;;;4977049;28;20293;-94
2020/12/14 17:57:13;;;;;;;5.13;4.10;;;11.20;99.90;;;;;;4976833;28;20237;-94
2020/12/14 17:59:43;;;;;;;8.07;4.00;;;11.20;99.90;;;;;;4976977;28;20661;-94
2020/12/14 18:02:10;;;;;;;6.70;4.37;;;11.10;99.90;;;;;;4971832;28;20213;-91
2020/12/14 18:04:37;;;;;;;7.17;4.30;;;11.10;99.90;;;;;;4957194;29;20204;-90
2020/12/14 18:07:04;;;;;;;14.27;4.43;;;11.10;99.90;;;;;;4924331;29;20223;-93
2020/12/14 18:09:31;;;;;;;6.60;4.90;;;11.10;99.90;;;;;;4957043;29;20194;-92
2020/12/14 18:11:57;;;;;;;6.30;4.87;;;11.20;99.90;;;;;;4957544;28;20190;-92
2020/12/14 18:14:23;;;;;;;6.37;4.40;;;11.20;99.90;;;;;;4957426;29;20194;-89
2020/12/14 18:16:50;;;;;;;8.70;4.93;;;11.10;99.90;;;;;;4956802;29;20245;-91
2020/12/14 18:19:17;;;;;;;7.27;4.80;;;11.10;99.90;;;;;;4956955;29;20213;-90
2020/12/14 18:21:43;;;;;;;7.10;4.43;;;11.00;99.90;;;;;;4957044;29;20216;-93
2020/12/14 18:24:10;;;;;;;8.83;4.10;;;11.00;99.90;;;;;;4957009;29;20202;-93
2020/12/14 18:26:37;;;;;;;10.07;4.23;;;11.10;99.90;;;;;;4956791;29;20230;-90
2020/12/14 18:29:04;;;;;;;7.50;4.67;;;11.10;99.90;;;;;;4956651;29;20225;-93
2020/12/14 18:31:31;;;;;;;8.23;4.13;;;11.10;99.90;;;;;;4956311;29;20221;-90
2020/12/14 21:24:16;;;;;;;6.83;4.10;;;10.60;99.90;;;;;;4977983;28;20305;-91
2020/12/14 21:26:44;;;;;;;6.43;4.13;;;10.70;99.90;;;;;;4977988;28;20232;-91
2020/12/14 21:29:11;;;;;;;6.57;4.17;;;10.80;99.90;;;;;;4977351;28;20597;-92
2020/12/14 21:31:37;;;;;;;4.33;3.90;;;10.70;99.90;;;;;;4977583;28;20217;-91
2020/12/14 21:34:06;;;;;;;8.60;4.37;;;10.70;99.90;;;;;;4977693;28;20205;-91
2020/12/14 21:36:34;;;;;;;5.17;3.93;;;10.70;99.90;;;;;;4977982;28;20229;-93
2020/12/14 21:39:00;;;;;;;4.73;4.00;;;10.70;99.90;;;;;;4977418;28;20209;-94
2020/12/14 21:41:27;;;;;;;5.77;3.67;;;10.70;99.90;;;;;;4977532;28;20217;-91
2020/12/14 21:43:54;;;;;;;5.40;3.93;;;10.80;99.90;;;;;;4977386;28;20224;-92
2020/12/14 21:46:21;;;;;;;7.40;4.43;;;10.70;99.90;;;;;;4977018;28;20232;-92
2020/12/14 21:48:49;;;;;;;6.43;4.50;;;10.70;99.90;;;;;;4978027;28;20216;-93
2020/12/14 21:51:16;;;;;;;8.23;5.00;;;10.70;99.90;;;;;;4977200;28;20237;-93
2020/12/14 21:53:43;;;;;;;8.30;4.90;;;10.80;99.90;;;;;;4977689;28;20209;-93
2020/12/14 21:56:10;;;;;;;7.60;5.37;;;10.80;99.90;;;;;;4976926;28;20237;-90
2020/12/14 21:58:37;;;;;;;6.57;4.93;;;10.80;99.90;;;;;;4976804;28;20645;-89
2020/12/14 22:01:04;;;;;;;8.73;5.30;;;10.90;99.90;;;;;;4977463;28;20221;-91
2020/12/14 22:03:30;;;;;;;6.30;5.20;;;10.70;99.90;;;;;;4976963;28;20201;-90
2020/12/14 22:05:56;;;;;;;11.37;5.97;;;10.70;99.90;;;;;;4976863;28;20721;-90
2020/12/14 22:08:24;;;;;;;7.83;5.27;;;10.70;99.90;;;;;;4977121;28;20193;-89
2020/12/14 22:10:51;;;;;;;8.50;5.67;;;10.80;99.90;;;;;;4976405;28;20259;-88
2020/12/14 22:13:17;;;;;;;12.73;6.30;;;10.80;99.90;;;;;;4976866;28;20201;-89
2020/12/14 22:15:44;;;;;;;7.33;6.03;;;10.70;99.90;;;;;;4959660;28;20256;-91
2020/12/14 22:18:11;;;;;;;11.97;6.13;;;10.70;99.90;;;;;;4976442;28;20233;-90
2020/12/14 22:20:37;;;;;;;8.80;5.80;;;10.80;99.90;;;;;;4976431;28;20213;-91
2020/12/14 22:23:04;;;;;;;8.87;5.67;;;10.70;99.90;;;;;;4976479;28;20227;-90
2020/12/14 22:25:30;;;;;;;8.87;6.67;;;10.70;99.90;;;;;;4976435;28;20251;-88
2020/12/14 22:27:57;;;;;;;8.40;5.63;;;10.80;99.90;;;;;;4976212;28;20717;-88
2020/12/14 22:30:24;;;;;;;9.37;6.00;;;10.80;99.90;;;;;;4976371;28;20260;-88